Clutton, United Kingdom
Current Conditions -  °F | °C
As of 10:20 PM on Thursday 18 Dec 2014 (Local Time) from EGGD Reporting Station
Light Rain Light Rain  
Wind Chill: 52°   Ceiling: 900
Heat Index: 52°   Visibility: 0mi
Dew Point: 50°   Wind: 18mph
Humidity: 94%   Direction: 230°SW
Pressure: 29.83"   Gusts: NA
Location:  51.33°N, 2.54°W
Report Text: EGGD 182220Z 23016KT 0000 -RA OVC009 11/10 Q1010
Loading
Personal Weather Stations






























Interactive Weather Map New forecast layout! Learn more

10-Day Weather Forecast

Advertisements
Track Severe Weather on mobile